sensor_id;sensor_type;location;lat;lon;timestamp;P1;durP1;ratioP1;P2;durP2;ratioP2
20725;SDS011;10524;48.132;8.518;2023-04-03T00:00:28;31.48;;;16.30;;
20725;SDS011;10524;48.132;8.518;2023-04-03T00:02:54;25.42;;;14.63;;
20725;SDS011;10524;48.132;8.518;2023-04-03T00:05:20;25.10;;;14.88;;
20725;SDS011;10524;48.132;8.518;2023-04-03T00:07:46;26.80;;;14.70;;
20725;SDS011;10524;48.132;8.518;2023-04-03T00:10:11;28.42;;;15.15;;
20725;SDS011;10524;48.132;8.518;2023-04-03T00:12:38;23.73;;;13.80;;
20725;SDS011;10524;48.132;8.518;2023-04-03T00:15:04;26.38;;;14.95;;
20725;SDS011;10524;48.132;8.518;2023-04-03T00:17:30;24.45;;;13.98;;
20725;SDS011;10524;48.132;8.518;2023-04-03T00:19:55;23.80;;;14.18;;
20725;SDS011;10524;48.132;8.518;2023-04-03T00:22:21;24.42;;;14.57;;
20725;SDS011;10524;48.132;8.518;2023-04-03T00:24:47;20.95;;;13.73;;
20725;SDS011;10524;48.132;8.518;2023-04-03T00:27:12;23.52;;;13.95;;
20725;SDS011;10524;48.132;8.518;2023-04-03T00:29:38;23.73;;;13.93;;
20725;SDS011;10524;48.132;8.518;2023-04-03T00:32:03;20.92;;;13.18;;
20725;SDS011;10524;48.132;8.518;2023-04-03T00:34:29;23.63;;;13.63;;
20725;SDS011;10524;48.132;8.518;2023-04-03T00:36:55;23.05;;;14.07;;
20725;SDS011;10524;48.132;8.518;2023-04-03T00:39:21;23.85;;;13.90;;
20725;SDS011;10524;48.132;8.518;2023-04-03T00:41:47;23.75;;;13.93;;
20725;SDS011;10524;48.132;8.518;2023-04-03T00:47:05;20.55;;;13.32;;
20725;SDS011;10524;48.132;8.518;2023-04-03T00:49:33;21.15;;;13.52;;
20725;SDS011;10524;48.132;8.518;2023-04-03T00:52:00;23.88;;;14.20;;
20725;SDS011;10524;48.132;8.518;2023-04-03T00:54:26;22.02;;;13.52;;
20725;SDS011;10524;48.132;8.518;2023-04-03T00:56:52;26.60;;;14.43;;
20725;SDS011;10524;48.132;8.518;2023-04-03T00:59:22;22.63;;;14.18;;
20725;SDS011;10524;48.132;8.518;2023-04-03T01:01:52;22.02;;;13.60;;
20725;SDS011;10524;48.132;8.518;2023-04-03T01:06:53;21.88;;;13.63;;
20725;SDS011;10524;48.132;8.518;2023-04-03T01:09:21;22.83;;;14.57;;
20725;SDS011;10524;48.132;8.518;2023-04-03T01:11:47;20.20;;;14.10;;
20725;SDS011;10524;48.132;8.518;2023-04-03T01:14:13;23.98;;;14.23;;
20725;SDS011;10524;48.132;8.518;2023-04-03T01:16:39;19.60;;;13.15;;
20725;SDS011;10524;48.132;8.518;2023-04-03T01:19:06;24.10;;;14.40;;
20725;SDS011;10524;48.132;8.518;2023-04-03T01:26:54;24.70;;;13.88;;
20725;SDS011;10524;48.132;8.518;2023-04-03T01:29:20;26.52;;;14.77;;
20725;SDS011;10524;48.132;8.518;2023-04-03T01:31:53;26.65;;;14.55;;
20725;SDS011;10524;48.132;8.518;2023-04-03T01:34:22;23.67;;;14.18;;
20725;SDS011;10524;48.132;8.518;2023-04-03T01:36:48;22.60;;;14.13;;
20725;SDS011;10524;48.132;8.518;2023-04-03T01:39:14;22.27;;;13.70;;
20725;SDS011;10524;48.132;8.518;2023-04-03T01:41:39;22.10;;;14.30;;
20725;SDS011;10524;48.132;8.518;2023-04-03T01:44:05;21.88;;;14.20;;
20725;SDS011;10524;48.132;8.518;2023-04-03T01:46:31;22.38;;;14.13;;
20725;SDS011;10524;48.132;8.518;2023-04-03T01:48:57;24.33;;;14.02;;
20725;SDS011;10524;48.132;8.518;2023-04-03T01:51:23;21.90;;;14.35;;
20725;SDS011;10524;48.132;8.518;2023-04-03T01:53:48;23.27;;;14.27;;
20725;SDS011;10524;48.132;8.518;2023-04-03T01:56:14;27.90;;;14.80;;
20725;SDS011;10524;48.132;8.518;2023-04-03T01:58:40;24.40;;;14.48;;
20725;SDS011;10524;48.132;8.518;2023-04-03T02:01:06;23.73;;;14.13;;
20725;SDS011;10524;48.132;8.518;2023-04-03T02:03:31;28.63;;;14.82;;
20725;SDS011;10524;48.132;8.518;2023-04-03T02:05:57;25.15;;;14.98;;
20725;SDS011;10524;48.132;8.518;2023-04-03T02:08:23;25.08;;;15.15;;
20725;SDS011;10524;48.132;8.518;2023-04-03T02:10:49;26.48;;;15.93;;
20725;SDS011;10524;48.132;8.518;2023-04-03T02:13:15;27.25;;;15.32;;
20725;SDS011;10524;48.132;8.518;2023-04-03T02:15:42;23.77;;;14.43;;
20725;SDS011;10524;48.132;8.518;2023-04-03T02:18:08;27.10;;;15.50;;
20725;SDS011;10524;48.132;8.518;2023-04-03T02:20:34;25.65;;;15.32;;
20725;SDS011;10524;48.132;8.518;2023-04-03T02:23:00;26.38;;;15.20;;
20725;SDS011;10524;48.132;8.518;2023-04-03T02:25:26;27.58;;;15.75;;
20725;SDS011;10524;48.132;8.518;2023-04-03T02:27:52;29.92;;;16.30;;
20725;SDS011;10524;48.132;8.518;2023-04-03T02:30:17;31.20;;;16.73;;
20725;SDS011;10524;48.132;8.518;2023-04-03T02:32:43;24.27;;;14.88;;
20725;SDS011;10524;48.132;8.518;2023-04-03T02:35:09;31.65;;;15.68;;
20725;SDS011;10524;48.132;8.518;2023-04-03T02:37:36;28.55;;;15.98;;
20725;SDS011;10524;48.132;8.518;2023-04-03T02:40:02;25.98;;;14.75;;
20725;SDS011;10524;48.132;8.518;2023-04-03T02:42:29;24.50;;;14.50;;
20725;SDS011;10524;48.132;8.518;2023-04-03T02:44:55;25.58;;;15.15;;
20725;SDS011;10524;48.132;8.518;2023-04-03T02:47:20;24.75;;;13.98;;
20725;SDS011;10524;48.132;8.518;2023-04-03T02:49:46;23.83;;;13.95;;
20725;SDS011;10524;48.132;8.518;2023-04-03T02:52:13;21.08;;;13.40;;
20725;SDS011;10524;48.132;8.518;2023-04-03T02:54:39;22.52;;;13.10;;
20725;SDS011;10524;48.132;8.518;2023-04-03T02:57:05;20.70;;;12.57;;
20725;SDS011;10524;48.132;8.518;2023-04-03T02:59:33;21.95;;;13.23;;
20725;SDS011;10524;48.132;8.518;2023-04-03T03:02:00;23.55;;;14.00;;
20725;SDS011;10524;48.132;8.518;2023-04-03T03:04:26;20.55;;;13.60;;
20725;SDS011;10524;48.132;8.518;2023-04-03T03:06:51;24.27;;;15.45;;
20725;SDS011;10524;48.132;8.518;2023-04-03T03:09:17;25.65;;;15.10;;
20725;SDS011;10524;48.132;8.518;2023-04-03T03:11:43;28.70;;;15.60;;
20725;SDS011;10524;48.132;8.518;2023-04-03T03:14:09;24.90;;;15.13;;
20725;SDS011;10524;48.132;8.518;2023-04-03T03:16:34;27.48;;;15.60;;
20725;SDS011;10524;48.132;8.518;2023-04-03T03:19:00;27.67;;;16.00;;
20725;SDS011;10524;48.132;8.518;2023-04-03T03:21:26;28.60;;;16.02;;
20725;SDS011;10524;48.132;8.518;2023-04-03T03:23:51;26.85;;;15.63;;
20725;SDS011;10524;48.132;8.518;2023-04-03T03:26:17;27.27;;;16.63;;
20725;SDS011;10524;48.132;8.518;2023-04-03T03:28:43;27.30;;;16.25;;
20725;SDS011;10524;48.132;8.518;2023-04-03T03:31:08;27.77;;;16.45;;
20725;SDS011;10524;48.132;8.518;2023-04-03T03:33:35;28.13;;;16.58;;
20725;SDS011;10524;48.132;8.518;2023-04-03T03:36:00;29.10;;;16.77;;
20725;SDS011;10524;48.132;8.518;2023-04-03T03:38:26;28.35;;;16.85;;
20725;SDS011;10524;48.132;8.518;2023-04-03T03:40:52;26.67;;;15.70;;
20725;SDS011;10524;48.132;8.518;2023-04-03T03:43:18;30.77;;;17.25;;
20725;SDS011;10524;48.132;8.518;2023-04-03T03:45:45;26.23;;;15.85;;
20725;SDS011;10524;48.132;8.518;2023-04-03T03:48:14;27.85;;;16.75;;
20725;SDS011;10524;48.132;8.518;2023-04-03T03:50:40;25.80;;;16.25;;
20725;SDS011;10524;48.132;8.518;2023-04-03T03:53:05;28.38;;;16.45;;
20725;SDS011;10524;48.132;8.518;2023-04-03T03:55:31;25.55;;;17.02;;
20725;SDS011;10524;48.132;8.518;2023-04-03T03:57:57;29.55;;;17.10;;
20725;SDS011;10524;48.132;8.518;2023-04-03T04:00:22;30.63;;;16.23;;
20725;SDS011;10524;48.132;8.518;2023-04-03T04:02:48;27.70;;;16.67;;
20725;SDS011;10524;48.132;8.518;2023-04-03T04:05:13;25.42;;;16.00;;
20725;SDS011;10524;48.132;8.518;2023-04-03T04:07:39;29.67;;;17.60;;
20725;SDS011;10524;48.132;8.518;2023-04-03T04:10:05;25.80;;;16.13;;
20725;SDS011;10524;48.132;8.518;2023-04-03T04:12:31;28.08;;;17.23;;
20725;SDS011;10524;48.132;8.518;2023-04-03T04:14:57;27.75;;;16.42;;
20725;SDS011;10524;48.132;8.518;2023-04-03T04:17:22;31.42;;;18.98;;
20725;SDS011;10524;48.132;8.518;2023-04-03T04:19:48;26.92;;;16.25;;
20725;SDS011;10524;48.132;8.518;2023-04-03T04:22:13;27.08;;;16.52;;
20725;SDS011;10524;48.132;8.518;2023-04-03T04:24:39;33.45;;;18.58;;
20725;SDS011;10524;48.132;8.518;2023-04-03T04:27:05;38.47;;;21.65;;
20725;SDS011;10524;48.132;8.518;2023-04-03T04:29:30;26.95;;;16.63;;
20725;SDS011;10524;48.132;8.518;2023-04-03T04:32:00;26.58;;;17.08;;
20725;SDS011;10524;48.132;8.518;2023-04-03T04:34:27;28.17;;;16.55;;
20725;SDS011;10524;48.132;8.518;2023-04-03T04:36:53;25.75;;;17.10;;
20725;SDS011;10524;48.132;8.518;2023-04-03T04:39:19;27.90;;;16.42;;
20725;SDS011;10524;48.132;8.518;2023-04-03T04:41:44;26.67;;;15.82;;
20725;SDS011;10524;48.132;8.518;2023-04-03T04:44:10;26.05;;;16.83;;
20725;SDS011;10524;48.132;8.518;2023-04-03T04:46:36;25.98;;;15.95;;
20725;SDS011;10524;48.132;8.518;2023-04-03T04:49:01;27.23;;;16.33;;
20725;SDS011;10524;48.132;8.518;2023-04-03T04:51:27;26.02;;;16.48;;
20725;SDS011;10524;48.132;8.518;2023-04-03T04:53:52;26.75;;;15.93;;
20725;SDS011;10524;48.132;8.518;2023-04-03T04:56:18;22.85;;;15.40;;
20725;SDS011;10524;48.132;8.518;2023-04-03T04:58:44;28.45;;;16.20;;
20725;SDS011;10524;48.132;8.518;2023-04-03T05:01:10;27.83;;;17.10;;
20725;SDS011;10524;48.132;8.518;2023-04-03T05:03:36;30.90;;;17.83;;
20725;SDS011;10524;48.132;8.518;2023-04-03T05:06:02;27.60;;;17.77;;
20725;SDS011;10524;48.132;8.518;2023-04-03T05:08:28;28.65;;;17.85;;
20725;SDS011;10524;48.132;8.518;2023-04-03T05:10:53;27.85;;;16.80;;
20725;SDS011;10524;48.132;8.518;2023-04-03T05:13:19;26.70;;;16.00;;
20725;SDS011;10524;48.132;8.518;2023-04-03T05:15:45;28.17;;;18.77;;
20725;SDS011;10524;48.132;8.518;2023-04-03T05:18:12;25.65;;;16.27;;
20725;SDS011;10524;48.132;8.518;2023-04-03T05:20:37;25.33;;;15.60;;
20725;SDS011;10524;48.132;8.518;2023-04-03T05:23:03;25.00;;;15.30;;
20725;SDS011;10524;48.132;8.518;2023-04-03T05:25:29;23.85;;;15.68;;
20725;SDS011;10524;48.132;8.518;2023-04-03T05:27:55;26.33;;;15.27;;
20725;SDS011;10524;48.132;8.518;2023-04-03T05:30:21;24.88;;;15.60;;
20725;SDS011;10524;48.132;8.518;2023-04-03T05:32:47;24.15;;;14.65;;
20725;SDS011;10524;48.132;8.518;2023-04-03T05:35:12;23.40;;;15.20;;
20725;SDS011;10524;48.132;8.518;2023-04-03T05:37:38;24.42;;;15.13;;
20725;SDS011;10524;48.132;8.518;2023-04-03T05:40:05;22.38;;;15.05;;
20725;SDS011;10524;48.132;8.518;2023-04-03T05:42:31;26.38;;;16.45;;
20725;SDS011;10524;48.132;8.518;2023-04-03T05:44:57;21.58;;;14.80;;
20725;SDS011;10524;48.132;8.518;2023-04-03T05:47:22;19.77;;;13.68;;
20725;SDS011;10524;48.132;8.518;2023-04-03T05:49:48;21.08;;;13.45;;
20725;SDS011;10524;48.132;8.518;2023-04-03T05:52:21;26.98;;;15.43;;
20725;SDS011;10524;48.132;8.518;2023-04-03T05:54:50;22.50;;;15.32;;
20725;SDS011;10524;48.132;8.518;2023-04-03T05:57:16;19.60;;;13.60;;
20725;SDS011;10524;48.132;8.518;2023-04-03T05:59:42;18.42;;;11.82;;
20725;SDS011;10524;48.132;8.518;2023-04-03T06:02:12;16.65;;;11.38;;
20725;SDS011;10524;48.132;8.518;2023-04-03T06:04:39;15.73;;;11.32;;
20725;SDS011;10524;48.132;8.518;2023-04-03T06:07:05;16.63;;;11.27;;
20725;SDS011;10524;48.132;8.518;2023-04-03T06:09:32;15.43;;;10.40;;
20725;SDS011;10524;48.132;8.518;2023-04-03T06:11:58;15.75;;;10.98;;
20725;SDS011;10524;48.132;8.518;2023-04-03T06:14:25;14.68;;;10.25;;
20725;SDS011;10524;48.132;8.518;2023-04-03T06:16:51;15.02;;;9.48;;
20725;SDS011;10524;48.132;8.518;2023-04-03T06:19:17;14.88;;;9.90;;
20725;SDS011;10524;48.132;8.518;2023-04-03T06:21:43;14.30;;;9.95;;
20725;SDS011;10524;48.132;8.518;2023-04-03T06:24:09;14.95;;;10.45;;
20725;SDS011;10524;48.132;8.518;2023-04-03T06:26:40;17.63;;;10.27;;
20725;SDS011;10524;48.132;8.518;2023-04-03T06:29:06;15.75;;;10.60;;
20725;SDS011;10524;48.132;8.518;2023-04-03T06:31:32;18.00;;;11.00;;
20725;SDS011;10524;48.132;8.518;2023-04-03T06:33:57;13.18;;;10.10;;
20725;SDS011;10524;48.132;8.518;2023-04-03T06:36:23;13.73;;;9.13;;
20725;SDS011;10524;48.132;8.518;2023-04-03T06:38:49;13.88;;;10.00;;
20725;SDS011;10524;48.132;8.518;2023-04-03T06:41:15;15.32;;;10.65;;
20725;SDS011;10524;48.132;8.518;2023-04-03T06:43:41;14.13;;;9.57;;
20725;SDS011;10524;48.132;8.518;2023-04-03T06:46:12;11.73;;;9.35;;
20725;SDS011;10524;48.132;8.518;2023-04-03T06:48:43;12.90;;;9.02;;
20725;SDS011;10524;48.132;8.518;2023-04-03T06:51:30;12.85;;;9.05;;
20725;SDS011;10524;48.132;8.518;2023-04-03T06:53:58;15.20;;;8.73;;
20725;SDS011;10524;48.132;8.518;2023-04-03T06:56:25;11.50;;;8.00;;
20725;SDS011;10524;48.132;8.518;2023-04-03T06:58:52;12.10;;;8.25;;
20725;SDS011;10524;48.132;8.518;2023-04-03T07:01:19;11.88;;;8.52;;
20725;SDS011;10524;48.132;8.518;2023-04-03T07:03:46;11.82;;;8.57;;
20725;SDS011;10524;48.132;8.518;2023-04-03T07:06:13;11.18;;;7.95;;
20725;SDS011;10524;48.132;8.518;2023-04-03T07:08:39;11.50;;;8.10;;
20725;SDS011;10524;48.132;8.518;2023-04-03T07:11:05;11.73;;;8.52;;
20725;SDS011;10524;48.132;8.518;2023-04-03T07:13:31;11.57;;;8.38;;
20725;SDS011;10524;48.132;8.518;2023-04-03T07:15:57;11.52;;;8.00;;
20725;SDS011;10524;48.132;8.518;2023-04-03T07:18:24;11.20;;;7.80;;
20725;SDS011;10524;48.132;8.518;2023-04-03T07:20:50;10.10;;;7.55;;
20725;SDS011;10524;48.132;8.518;2023-04-03T07:23:15;10.05;;;7.78;;
20725;SDS011;10524;48.132;8.518;2023-04-03T07:25:46;11.00;;;8.15;;
20725;SDS011;10524;48.132;8.518;2023-04-03T07:28:13;10.43;;;7.35;;
20725;SDS011;10524;48.132;8.518;2023-04-03T07:30:46;10.57;;;7.28;;
20725;SDS011;10524;48.132;8.518;2023-04-03T07:33:16;8.43;;;6.50;;
20725;SDS011;10524;48.132;8.518;2023-04-03T07:35:43;8.57;;;6.30;;
20725;SDS011;10524;48.132;8.518;2023-04-03T07:38:09;8.68;;;6.72;;
20725;SDS011;10524;48.132;8.518;2023-04-03T07:40:36;9.05;;;6.63;;
20725;SDS011;10524;48.132;8.518;2023-04-03T07:43:02;9.23;;;6.45;;
20725;SDS011;10524;48.132;8.518;2023-04-03T07:45:28;5.75;;;5.03;;
20725;SDS011;10524;48.132;8.518;2023-04-03T07:47:54;6.70;;;5.13;;
20725;SDS011;10524;48.132;8.518;2023-04-03T07:50:20;6.45;;;4.97;;
20725;SDS011;10524;48.132;8.518;2023-04-03T07:52:45;6.47;;;4.85;;
20725;SDS011;10524;48.132;8.518;2023-04-03T07:55:11;5.70;;;4.25;;
20725;SDS011;10524;48.132;8.518;2023-04-03T07:57:37;5.75;;;4.30;;
20725;SDS011;10524;48.132;8.518;2023-04-03T08:00:03;5.53;;;4.22;;
20725;SDS011;10524;48.132;8.518;2023-04-03T08:02:29;5.03;;;3.88;;
20725;SDS011;10524;48.132;8.518;2023-04-03T08:04:57;5.78;;;3.92;;
20725;SDS011;10524;48.132;8.518;2023-04-03T08:07:23;6.50;;;3.80;;
20725;SDS011;10524;48.132;8.518;2023-04-03T08:09:49;4.43;;;3.90;;
20725;SDS011;10524;48.132;8.518;2023-04-03T08:12:15;7.15;;;4.13;;
20725;SDS011;10524;48.132;8.518;2023-04-03T08:14:41;7.18;;;4.22;;
20725;SDS011;10524;48.132;8.518;2023-04-03T08:17:07;4.60;;;3.80;;
20725;SDS011;10524;48.132;8.518;2023-04-03T08:19:36;6.00;;;4.18;;
20725;SDS011;10524;48.132;8.518;2023-04-03T08:22:05;4.55;;;3.92;;
20725;SDS011;10524;48.132;8.518;2023-04-03T08:24:34;4.43;;;3.80;;
20725;SDS011;10524;48.132;8.518;2023-04-03T08:26:59;4.25;;;3.38;;
20725;SDS011;10524;48.132;8.518;2023-04-03T08:29:25;3.38;;;3.08;;
20725;SDS011;10524;48.132;8.518;2023-04-03T08:31:51;3.75;;;3.22;;
20725;SDS011;10524;48.132;8.518;2023-04-03T08:34:17;5.38;;;3.00;;
20725;SDS011;10524;48.132;8.518;2023-04-03T08:36:44;2.83;;;2.53;;
20725;SDS011;10524;48.132;8.518;2023-04-03T08:39:10;4.93;;;2.90;;
20725;SDS011;10524;48.132;8.518;2023-04-03T08:41:43;3.65;;;3.03;;
20725;SDS011;10524;48.132;8.518;2023-04-03T08:52:18;3.35;;;2.63;;
20725;SDS011;10524;48.132;8.518;2023-04-03T08:55:06;6.60;;;4.68;;
20725;SDS011;10524;48.132;8.518;2023-04-03T08:57:41;3.15;;;2.85;;
20725;SDS011;10524;48.132;8.518;2023-04-03T09:00:17;3.50;;;2.92;;
20725;SDS011;10524;48.132;8.518;2023-04-03T09:05:13;2.70;;;2.50;;
20725;SDS011;10524;48.132;8.518;2023-04-03T09:07:46;3.20;;;2.90;;
20725;SDS011;10524;48.132;8.518;2023-04-03T09:10:19;3.97;;;2.78;;
20725;SDS011;10524;48.132;8.518;2023-04-03T09:13:03;3.85;;;2.85;;
20725;SDS011;10524;48.132;8.518;2023-04-03T09:15:43;5.10;;;3.10;;
20725;SDS011;10524;48.132;8.518;2023-04-03T09:18:13;3.28;;;2.92;;
20725;SDS011;10524;48.132;8.518;2023-04-03T09:23:38;5.38;;;3.22;;
20725;SDS011;10524;48.132;8.518;2023-04-03T09:26:16;3.92;;;3.53;;
20725;SDS011;10524;48.132;8.518;2023-04-03T09:28:46;4.43;;;3.58;;
20725;SDS011;10524;48.132;8.518;2023-04-03T09:31:17;3.30;;;3.00;;
20725;SDS011;10524;48.132;8.518;2023-04-03T09:33:46;3.78;;;3.17;;
20725;SDS011;10524;48.132;8.518;2023-04-03T09:36:36;4.18;;;3.30;;
20725;SDS011;10524;48.132;8.518;2023-04-03T09:39:07;4.45;;;3.53;;
20725;SDS011;10524;48.132;8.518;2023-04-03T09:41:36;4.97;;;3.30;;
20725;SDS011;10524;48.132;8.518;2023-04-03T09:44:03;4.00;;;3.40;;
20725;SDS011;10524;48.132;8.518;2023-04-03T09:46:44;5.30;;;3.77;;
20725;SDS011;10524;48.132;8.518;2023-04-03T09:49:10;4.00;;;3.50;;
20725;SDS011;10524;48.132;8.518;2023-04-03T09:51:37;4.68;;;3.22;;
20725;SDS011;10524;48.132;8.518;2023-04-03T09:57:05;3.17;;;2.88;;
20725;SDS011;10524;48.132;8.518;2023-04-03T09:59:33;6.25;;;4.40;;
20725;SDS011;10524;48.132;8.518;2023-04-03T10:02:00;3.90;;;3.30;;
20725;SDS011;10524;48.132;8.518;2023-04-03T10:04:47;5.63;;;3.30;;
20725;SDS011;10524;48.132;8.518;2023-04-03T10:12:44;6.32;;;4.07;;
20725;SDS011;10524;48.132;8.518;2023-04-03T10:15:15;4.47;;;3.28;;
20725;SDS011;10524;48.132;8.518;2023-04-03T10:17:56;5.20;;;3.30;;
20725;SDS011;10524;48.132;8.518;2023-04-03T10:31:37;4.80;;;3.45;;
20725;SDS011;10524;48.132;8.518;2023-04-03T10:34:24;4.55;;;3.55;;
20725;SDS011;10524;48.132;8.518;2023-04-03T10:42:48;5.40;;;4.00;;
20725;SDS011;10524;48.132;8.518;2023-04-03T10:45:26;4.68;;;3.90;;
20725;SDS011;10524;48.132;8.518;2023-04-03T10:54:01;13.68;;;10.13;;
20725;SDS011;10524;48.132;8.518;2023-04-03T11:01:53;4.20;;;3.70;;
20725;SDS011;10524;48.132;8.518;2023-04-03T11:04:22;5.38;;;4.22;;
20725;SDS011;10524;48.132;8.518;2023-04-03T11:07:03;4.95;;;3.92;;
20725;SDS011;10524;48.132;8.518;2023-04-03T11:09:35;6.85;;;4.35;;
20725;SDS011;10524;48.132;8.518;2023-04-03T11:12:14;5.70;;;3.97;;
20725;SDS011;10524;48.132;8.518;2023-04-03T11:14:46;4.45;;;3.53;;
20725;SDS011;10524;48.132;8.518;2023-04-03T11:17:19;4.82;;;3.72;;
20725;SDS011;10524;48.132;8.518;2023-04-03T11:25:51;5.07;;;3.72;;
20725;SDS011;10524;48.132;8.518;2023-04-03T11:28:19;5.18;;;3.88;;
20725;SDS011;10524;48.132;8.518;2023-04-03T11:36:03;7.57;;;3.70;;
20725;SDS011;10524;48.132;8.518;2023-04-03T11:38:37;4.82;;;3.67;;
20725;SDS011;10524;48.132;8.518;2023-04-03T11:41:08;4.38;;;3.53;;
20725;SDS011;10524;48.132;8.518;2023-04-03T11:43:39;5.90;;;3.08;;
20725;SDS011;10524;48.132;8.518;2023-04-03T11:46:07;4.30;;;3.53;;
20725;SDS011;10524;48.132;8.518;2023-04-03T11:51:47;4.93;;;3.70;;
20725;SDS011;10524;48.132;8.518;2023-04-03T11:53:53;3.88;;;3.15;;
20725;SDS011;10524;48.132;8.518;2023-04-03T12:01:44;5.85;;;3.50;;
20725;SDS011;10524;48.132;8.518;2023-04-03T12:04:11;4.53;;;3.88;;
20725;SDS011;10524;48.132;8.518;2023-04-03T12:12:24;6.32;;;4.70;;
20725;SDS011;10524;48.132;8.518;2023-04-03T12:14:54;7.30;;;4.97;;
20725;SDS011;10524;48.132;8.518;2023-04-03T12:17:22;5.80;;;3.70;;
20725;SDS011;10524;48.132;8.518;2023-04-03T12:19:51;4.30;;;3.38;;
20725;SDS011;10524;48.132;8.518;2023-04-03T12:22:18;4.80;;;3.25;;
20725;SDS011;10524;48.132;8.518;2023-04-03T12:24:49;4.30;;;3.40;;
20725;SDS011;10524;48.132;8.518;2023-04-03T12:27:21;5.35;;;3.30;;
20725;SDS011;10524;48.132;8.518;2023-04-03T12:32:37;5.07;;;3.83;;
20725;SDS011;10524;48.132;8.518;2023-04-03T12:46:14;14.70;;;7.68;;
20725;SDS011;10524;48.132;8.518;2023-04-03T12:48:51;23.73;;;12.32;;
20725;SDS011;10524;48.132;8.518;2023-04-03T12:51:37;6.05;;;3.50;;
20725;SDS011;10524;48.132;8.518;2023-04-03T12:57:08;6.00;;;4.30;;
20725;SDS011;10524;48.132;8.518;2023-04-03T12:59:34;7.35;;;5.20;;
20725;SDS011;10524;48.132;8.518;2023-04-03T13:02:02;10.18;;;5.38;;
20725;SDS011;10524;48.132;8.518;2023-04-03T13:04:29;6.03;;;3.58;;
20725;SDS011;10524;48.132;8.518;2023-04-03T13:06:56;7.70;;;3.80;;
20725;SDS011;10524;48.132;8.518;2023-04-03T13:09:26;5.38;;;3.60;;
20725;SDS011;10524;48.132;8.518;2023-04-03T13:12:00;7.85;;;4.97;;
20725;SDS011;10524;48.132;8.518;2023-04-03T13:14:29;4.78;;;3.97;;
20725;SDS011;10524;48.132;8.518;2023-04-03T13:16:59;4.50;;;4.00;;
20725;SDS011;10524;48.132;8.518;2023-04-03T13:19:31;7.13;;;4.18;;
20725;SDS011;10524;48.132;8.518;2023-04-03T13:22:07;6.85;;;3.83;;
20725;SDS011;10524;48.132;8.518;2023-04-03T13:24:46;13.18;;;9.43;;
20725;SDS011;10524;48.132;8.518;2023-04-03T13:27:15;5.18;;;3.67;;
20725;SDS011;10524;48.132;8.518;2023-04-03T13:29:42;5.70;;;3.65;;
20725;SDS011;10524;48.132;8.518;2023-04-03T13:32:14;7.05;;;3.83;;
20725;SDS011;10524;48.132;8.518;2023-04-03T13:34:45;6.70;;;4.40;;
20725;SDS011;10524;48.132;8.518;2023-04-03T13:37:21;8.75;;;4.65;;
20725;SDS011;10524;48.132;8.518;2023-04-03T13:39:58;5.85;;;3.97;;
20725;SDS011;10524;48.132;8.518;2023-04-03T13:42:29;6.15;;;5.20;;
20725;SDS011;10524;48.132;8.518;2023-04-03T13:45:57;5.03;;;3.97;;
20725;SDS011;10524;48.132;8.518;2023-04-03T13:48:15;4.05;;;3.50;;
20725;SDS011;10524;48.132;8.518;2023-04-03T13:53:30;4.68;;;3.40;;
20725;SDS011;10524;48.132;8.518;2023-04-03T13:58:30;4.45;;;3.60;;
20725;SDS011;10524;48.132;8.518;2023-04-03T14:01:05;6.40;;;4.97;;
20725;SDS011;10524;48.132;8.518;2023-04-03T14:06:05;12.05;;;7.25;;
20725;SDS011;10524;48.132;8.518;2023-04-03T14:08:33;13.32;;;8.02;;
20725;SDS011;10524;48.132;8.518;2023-04-03T14:10:58;5.85;;;3.65;;
20725;SDS011;10524;48.132;8.518;2023-04-03T14:13:25;6.43;;;4.18;;
20725;SDS011;10524;48.132;8.518;2023-04-03T14:15:50;7.03;;;3.80;;
20725;SDS011;10524;48.132;8.518;2023-04-03T14:18:17;4.75;;;3.60;;
20725;SDS011;10524;48.132;8.518;2023-04-03T14:20:45;4.85;;;3.85;;
20725;SDS011;10524;48.132;8.518;2023-04-03T14:23:12;7.75;;;4.53;;
20725;SDS011;10524;48.132;8.518;2023-04-03T14:25:38;7.82;;;4.57;;
20725;SDS011;10524;48.132;8.518;2023-04-03T14:28:12;8.00;;;5.22;;
20725;SDS011;10524;48.132;8.518;2023-04-03T14:30:47;11.20;;;5.93;;
20725;SDS011;10524;48.132;8.518;2023-04-03T14:33:17;4.93;;;3.67;;
20725;SDS011;10524;48.132;8.518;2023-04-03T14:35:44;5.45;;;3.80;;
20725;SDS011;10524;48.132;8.518;2023-04-03T14:38:24;10.40;;;5.88;;
20725;SDS011;10524;48.132;8.518;2023-04-03T14:40:52;7.22;;;4.80;;
20725;SDS011;10524;48.132;8.518;2023-04-03T14:43:19;7.18;;;4.90;;
20725;SDS011;10524;48.132;8.518;2023-04-03T14:45:45;4.75;;;3.70;;
20725;SDS011;10524;48.132;8.518;2023-04-03T14:48:15;5.05;;;3.47;;
20725;SDS011;10524;48.132;8.518;2023-04-03T14:50:44;8.40;;;4.45;;
20725;SDS011;10524;48.132;8.518;2023-04-03T14:53:10;6.22;;;4.13;;
20725;SDS011;10524;48.132;8.518;2023-04-03T14:55:38;4.95;;;3.38;;
20725;SDS011;10524;48.132;8.518;2023-04-03T14:58:05;5.75;;;3.58;;
20725;SDS011;10524;48.132;8.518;2023-04-03T15:00:30;5.40;;;3.80;;
20725;SDS011;10524;48.132;8.518;2023-04-03T15:02:57;6.43;;;4.10;;
20725;SDS011;10524;48.132;8.518;2023-04-03T15:05:22;7.90;;;2.95;;
20725;SDS011;10524;48.132;8.518;2023-04-03T15:07:49;5.03;;;3.63;;
20725;SDS011;10524;48.132;8.518;2023-04-03T15:10:23;5.90;;;3.63;;
20725;SDS011;10524;48.132;8.518;2023-04-03T15:12:50;5.25;;;3.45;;
20725;SDS011;10524;48.132;8.518;2023-04-03T15:15:17;5.60;;;3.45;;
20725;SDS011;10524;48.132;8.518;2023-04-03T15:17:45;5.65;;;4.00;;
20725;SDS011;10524;48.132;8.518;2023-04-03T15:20:16;6.35;;;4.15;;
20725;SDS011;10524;48.132;8.518;2023-04-03T15:22:45;5.78;;;3.95;;
20725;SDS011;10524;48.132;8.518;2023-04-03T15:25:11;7.88;;;5.07;;
20725;SDS011;10524;48.132;8.518;2023-04-03T15:27:37;5.55;;;4.15;;
20725;SDS011;10524;48.132;8.518;2023-04-03T15:30:04;7.32;;;4.95;;
20725;SDS011;10524;48.132;8.518;2023-04-03T15:32:31;3.70;;;2.40;;
20725;SDS011;10524;48.132;8.518;2023-04-03T15:34:58;10.10;;;5.72;;
20725;SDS011;10524;48.132;8.518;2023-04-03T15:37:24;4.55;;;3.40;;
20725;SDS011;10524;48.132;8.518;2023-04-03T15:39:51;4.63;;;3.03;;
20725;SDS011;10524;48.132;8.518;2023-04-03T15:42:17;5.50;;;3.78;;
20725;SDS011;10524;48.132;8.518;2023-04-03T15:44:43;4.15;;;2.92;;
20725;SDS011;10524;48.132;8.518;2023-04-03T15:47:08;5.10;;;3.42;;
20725;SDS011;10524;48.132;8.518;2023-04-03T15:49:35;7.43;;;4.25;;
20725;SDS011;10524;48.132;8.518;2023-04-03T15:52:00;7.13;;;4.90;;
20725;SDS011;10524;48.132;8.518;2023-04-03T15:54:26;8.90;;;5.15;;
20725;SDS011;10524;48.132;8.518;2023-04-03T15:56:54;5.90;;;4.20;;
20725;SDS011;10524;48.132;8.518;2023-04-03T15:59:20;7.13;;;4.80;;
20725;SDS011;10524;48.132;8.518;2023-04-03T16:01:46;5.82;;;3.42;;
20725;SDS011;10524;48.132;8.518;2023-04-03T16:04:13;4.03;;;2.78;;
20725;SDS011;10524;48.132;8.518;2023-04-03T16:06:39;5.85;;;3.50;;
20725;SDS011;10524;48.132;8.518;2023-04-03T16:09:06;7.20;;;4.85;;
20725;SDS011;10524;48.132;8.518;2023-04-03T16:11:32;9.65;;;6.05;;
20725;SDS011;10524;48.132;8.518;2023-04-03T16:14:00;9.98;;;3.88;;
20725;SDS011;10524;48.132;8.518;2023-04-03T16:16:25;6.75;;;4.80;;
20725;SDS011;10524;48.132;8.518;2023-04-03T16:18:52;5.78;;;3.25;;
20725;SDS011;10524;48.132;8.518;2023-04-03T16:21:19;4.32;;;3.17;;
20725;SDS011;10524;48.132;8.518;2023-04-03T16:23:45;7.30;;;4.82;;
20725;SDS011;10524;48.132;8.518;2023-04-03T16:26:11;7.63;;;3.97;;
20725;SDS011;10524;48.132;8.518;2023-04-03T16:28:37;4.97;;;3.38;;
20725;SDS011;10524;48.132;8.518;2023-04-03T16:31:04;5.15;;;3.92;;